CYYF

Penticton Airport

Penticton, , Canada
TAF CYYF 141838Z 1419/1507 17017G27KT P6SM FEW020 BKN060 OVC220 TEMPO 1419/1421 P6SM -SHRA PROB30 1419/1421 P6SM -FZRA FM142100 19012G22KT P6SM FEW020 SCT060 TEMPO 1421/1503 SCT020 BKN060 BECMG 1503/1505 19010KT RMK NXT FCST BY 150100Z
Issued Valid From Valid To
Nov-14 @ 18:38 UTC
(6 hours ago)
Nov-14 @ 19:00 UTC
(6 hours ago)
Nov-15 @ 07:00 UTC
(in 6 hours)
Expired Click to View Nov-14 @ 19:00 to Nov-14 @ 21:00
TAF CYYF 141838Z 1419/1507 17017G27KT P6SM FEW020 BKN060 OVC220
Wind Visibility Clouds
170° at 17 knots
 Gusting to 27 knots
Greater than 6 miles
  • Few at 2,000' AGL
  • Broken at 6,000' AGL
  • Overcast at 22,000' AGL
Expired Click to View Nov-14 @ 19:00 to Nov-14 @ 21:00
TEMPO 1419/1421 P6SM -SHRA
Visibility Conditions
Greater than 6 miles
  • Light Rain
Expired Click to View Nov-14 @ 19:00 to Nov-14 @ 21:00
PROB30 1419/1421 P6SM -FZRA
Visibility Conditions
Greater than 6 miles
  • Light Freezing
  • Light Rain
From Nov-14 @ 21:00 to Nov-15 @ 03:00
FM142100 19012G22KT P6SM FEW020 SCT060
Wind Visibility Clouds
190° at 12 knots
 Gusting to 22 knots
Greater than 6 miles
  • Few at 2,000' AGL
  • Scattered at 6,000' AGL
Temporary Nov-14 @ 21:00 to Nov-15 @ 03:00
TEMPO 1421/1503 SCT020 BKN060
Clouds
  • Scattered at 2,000' AGL
  • Broken at 6,000' AGL
Becoming Nov-15 @ 03:00 to Nov-15 @ 07:00
BECMG 1503/1505 19010KT RMK NXT FCST BY 150100Z
Wind Visibility Clouds
190° at 10 knots Greater than 6 miles
  • Few at 2,000' AGL
  • Scattered at 6,000' AGL
TAF CYYF 141838Z 1419/1507 17017G27KT P6SM FEW020 BKN060 OVC220 TEMPO 1419/1421 P6SM -SHRA PROB30 1419/1421 P6SM -FZRA FM142100 19012G22KT P6SM FEW020 SCT060 TEMPO 1421/1503 SCT020 BKN060 BECMG 1503/1505 19010KT RMK NXT FCST BY 150100Z
Issued Nov-14 @ 18:38 UTC
(6 hours ago)
Valid From Nov-14 @ 19:00 UTC
(6 hours ago)
Valid To Nov-15 @ 07:00 UTC
(in 6 hours)
Nov-14 @ 19:00 - Nov-14 @ 21:00
Wind Visibility
170° at 17 knots
 Gusting to 27 knots
Greater than 6 miles
Clouds
  • Few at 2,000' AGL
  • Broken at 6,000' AGL
  • Overcast at 22,000' AGL
Nov-14 @ 19:00 - Nov-14 @ 21:00
Conditions
  • Light Rain
Nov-14 @ 19:00 - Nov-14 @ 21:00
Conditions
  • Light Freezing
  • Light Rain
From Nov-14 @ 21:00 - Nov-15 @ 03:00
Wind Visibility
190° at 12 knots
 Gusting to 22 knots
Greater than 6 miles
Clouds
  • Few at 2,000' AGL
  • Scattered at 6,000' AGL
Temporary Nov-14 @ 21:00 - Nov-15 @ 03:00
Clouds
  • Scattered at 2,000' AGL
  • Broken at 6,000' AGL
Becoming Nov-15 @ 03:00 - Nov-15 @ 07:00
Wind Visibility
190° at 10 knots Greater than 6 miles
Clouds
  • Few at 2,000' AGL
  • Scattered at 6,000' AGL